Time;durP1;ratioP1;P1;durP2;ratioP2;P2;SDS_P1;SDS_P2;PMS_P1;PMS_P2;Temp;Humidity;BMP_temperature;BMP_pressure;BME280_temperature;BME280_humidity;BME280_pressure;Samples;Min_cycle;Max_cycle;Signal;HPM_P1;HPM_P2
2021/12/03 00:00:04;;;;;;;;;;;;;;;;;;172234;28;869;-53
2021/12/03 00:00:11;;;;;;;;;;;;;;;;;;171943;28;1039;-55
2021/12/03 00:00:22;;;;;;;;;;;;;;;;;;172085;28;738;-53
2021/12/03 00:00:28;;;;;;;;;;;;;;;;;;172061;28;829;-53
2021/12/03 00:00:35;;;;;;;;;;;;;;;;;;172063;28;1261;-53
2021/12/03 00:00:42;;;;;;;;;;;;;;;;;;172106;28;1039;-53
2021/12/03 00:00:56;;;;;;;;;;;;;;;;;;171970;28;806;-53
2021/12/03 00:01:03;;;;;;;;;;;;;;;;;;172111;28;915;-52
2021/12/03 00:01:09;;;;;;;;;;;;;;;;;;171404;28;4404;-53
2021/12/03 00:01:15;;;;;;;;;;;;;;;;;;172163;28;788;-53
2021/12/03 00:01:27;;;;;;;;;;;;;;;;;;172018;28;1348;-53
2021/12/03 00:01:33;;;;;;;;;;;;;;;;;;172081;28;1146;-53
2021/12/03 00:01:39;;;;;;;;;;;;;;;;;;172012;28;825;-54
2021/12/03 00:01:44;;;;;;;;;;;;;;;;;;172041;28;1309;-54
2021/12/03 00:01:49;;;;;;;;;;;;;;;;;;171979;28;837;-52
2021/12/03 00:01:54;;;;;;;;;;;;;;;;;;171910;28;1137;-52
2021/12/03 00:01:59;;;;;;;;;;;;;;;;;;172114;28;960;-54
2021/12/03 00:02:05;;;;;;;;;;;;;;;;;;172083;28;1163;-54
2021/12/03 00:02:10;;;;;;;;;;;;;;;;;;172055;28;805;-53
2021/12/03 00:02:15;;;;;;;;;;;;;;;;;;172051;28;1153;-54
2021/12/03 00:02:20;;;;;;;;;;;;;;;;;;172077;28;573;-52
2021/12/03 00:02:25;;;;;;;;;;;;;;;;;;172020;28;889;-53
2021/12/03 00:02:31;;;;;;;;;;;;;;;;;;172150;28;1265;-53
2021/12/03 00:02:36;;;;;;;;;;;;;;;;;;172180;28;880;-54
2021/12/03 00:02:41;;;;;;;;;;;;;;;;;;172022;28;1107;-55
2021/12/03 00:02:46;;;;;;;;;;;;;;;;;;172072;28;785;-54
2021/12/03 00:02:51;;;;;;;;;;;;;;;;;;172022;28;1137;-55
2021/12/03 00:02:56;;;;;;;;;;;;;;;;;;172120;28;1000;-53
2021/12/03 00:03:02;;;;;;;;;;;;;;;;;;172193;28;805;-53
2021/12/03 00:03:07;;;;;;;;;;;;;;;;;;172038;28;1265;-53
2021/12/03 00:03:12;;;;;;;;;;;;;;;;;;172225;28;910;-53
2021/12/03 00:03:18;;;;;;;;;;;;;;;;;;172064;28;1182;-53
2021/12/03 00:03:24;;;;;;;;;;;;;;;;;;171958;28;1000;-52
2021/12/03 00:03:29;;;;;;;;;;;;;;;;;;172140;28;1149;-53
2021/12/03 00:03:34;;;;;;;;;;;;;;;;;;172045;28;797;-50
2021/12/03 00:03:40;;;;;;;;;;;;;;;;;;171942;28;1162;-53
2021/12/03 00:03:45;;;;;;;;;;;;;;;;;;171978;28;850;-52
2021/12/03 00:03:50;;;;;;;;;;;;;;;;;;171912;28;1165;-51
2021/12/03 00:03:55;;;;;;;;;;;;;;;;;;172070;28;854;-54
2021/12/03 00:04:00;;;;;;;;;;;;;;;;;;172224;28;1007;-54
2021/12/03 00:04:06;;;;;;;;;;;;;;;;;;172029;28;1142;-53
2021/12/03 00:04:11;;;;;;;;;;;;;;;;;;172130;28;983;-53
2021/12/03 00:04:16;;;;;;;;;;;;;;;;;;172134;28;1217;-53
2021/12/03 00:04:21;;;;;;;;;;;;;;;;;;172101;28;937;-55
2021/12/03 00:04:27;;;;;;;;;;;;;;;;;;172079;28;1055;-53
2021/12/03 00:04:32;;;;;;;;;;;;;;;;;;172172;28;1020;-54
2021/12/03 00:04:37;;;;;;;;;;;;;;;;;;171961;28;1014;-54
2021/12/03 00:04:42;;;;;;;;;;;;;;;;;;172133;28;921;-52
2021/12/03 00:04:47;;;;;;;;;;;;;;;;;;171951;28;801;-53
2021/12/03 00:04:52;;;;;;;;;;;;;;;;;;171884;28;1181;-54
2021/12/03 00:04:58;;;;;;;;;;;;;;;;;;172019;28;1210;-53
2021/12/03 00:05:03;;;;;;;;;;;;;;;;;;171651;28;4653;-54
2021/12/03 00:05:09;;;;;;;;;;;;;;;;;;172088;28;869;-51
2021/12/03 00:05:14;;;;;;;;;;;;;;;;;;172101;28;1151;-54
2021/12/03 00:05:19;;;;;;;;;;;;;;;;;;172134;28;801;-54
2021/12/03 00:05:24;;;;;;;;;;;;;;;;;;171938;28;1110;-53
2021/12/03 00:05:30;;;;;;;;;;;;;;;;;;172109;28;860;-53
2021/12/03 00:05:35;;;;;;;;;;;;;;;;;;172076;28;481;-53
2021/12/03 00:05:41;;;;;;;;;;;;;;;;;;172015;28;841;-53
2021/12/03 00:05:46;;;;;;;;;;;;;;;;;;172059;28;738;-53
2021/12/03 00:05:52;;;;;;;;;;;;;;;;;;171829;28;1241;-54
2021/12/03 00:05:58;;;;;;;;;;;;;;;;;;171421;28;837;-53
2021/12/03 00:06:03;;;;;;;;;;;;;;;;;;171329;28;1162;-53
2021/12/03 00:06:08;;;;;;;;;;;;;;;;;;171303;28;1193;-53
2021/12/03 00:06:14;;;;;;;;;;;;;;;;;;171371;28;1099;-53
2021/12/03 00:06:19;;;;;;;;;;;;;;;;;;171495;28;837;-53
2021/12/03 00:06:24;;;;;;;;;;;;;;;;;;171283;28;1162;-53
2021/12/03 00:06:34;;;;;;;;;;;;;;;;;;171430;28;797;-54
2021/12/03 00:06:40;;;;;;;;;;;;;;;;;;171305;28;943;-54
2021/12/03 00:06:45;;;;;;;;;;;;;;;;;;171267;28;913;-52
2021/12/03 00:06:50;;;;;;;;;;;;;;;;;;171249;28;1207;-53
2021/12/03 00:06:55;;;;;;;;;;;;;;;;;;171420;28;861;-53
2021/12/03 00:07:01;;;;;;;;;;;;;;;;;;171367;28;1100;-53
2021/12/03 00:07:06;;;;;;;;;;;;;;;;;;170966;28;1431;-55
2021/12/03 00:07:11;;;;;;;;;;;;;;;;;;170948;28;1518;-53
2021/12/03 00:07:16;;;;;;;;;;;;;;;;;;172009;28;978;-52
2021/12/03 00:07:21;;;;;;;;;;;;;;;;;;171940;28;1177;-53
2021/12/03 00:07:27;;;;;;;;;;;;;;;;;;172085;28;924;-54
2021/12/03 00:07:33;;;;;;;;;;;;;;;;;;172146;28;987;-53
2021/12/03 00:07:40;;;;;;;;;;;;;;;;;;171978;28;1010;-54
2021/12/03 00:07:46;;;;;;;;;;;;;;;;;;171834;28;929;-54
2021/12/03 00:07:51;;;;;;;;;;;;;;;;;;171846;28;860;-55
2021/12/03 00:07:56;;;;;;;;;;;;;;;;;;171584;28;861;-52
2021/12/03 00:08:01;;;;;;;;;;;;;;;;;;172039;28;1329;-53
2021/12/03 00:08:07;;;;;;;;;;;;;;;;;;171897;28;833;-55
2021/12/03 00:08:12;;;;;;;;;;;;;;;;;;172072;28;1189;-52
2021/12/03 00:08:18;;;;;;;;;;;;;;;;;;172135;28;899;-54
2021/12/03 00:08:25;;;;;;;;;;;;;;;;;;171940;28;1091;-54
2021/12/03 00:08:30;;;;;;;;;;;;;;;;;;172102;28;898;-54
2021/12/03 00:08:35;;;;;;;;;;;;;;;;;;172014;28;1155;-54
2021/12/03 00:08:40;;;;;;;;;;;;;;;;;;172035;28;896;-54
2021/12/03 00:08:46;;;;;;;;;;;;;;;;;;172021;28;1182;-54
2021/12/03 00:08:51;;;;;;;;;;;;;;;;;;171947;28;852;-54
2021/12/03 00:08:57;;;;;;;;;;;;;;;;;;171853;28;1088;-54
2021/12/03 00:09:03;;;;;;;;;;;;;;;;;;171597;28;4274;-54
2021/12/03 00:09:08;;;;;;;;;;;;;;;;;;171932;28;1083;-55
2021/12/03 00:09:13;;;;;;;;;;;;;;;;;;172217;28;805;-53
2021/12/03 00:09:18;;;;;;;;;;;;;;;;;;172149;28;837;-53
2021/12/03 00:09:23;;;;;;;;;;;;;;;;;;171840;28;1099;-54
2021/12/03 00:09:34;;;;;;;;;;;;;;;;;;172170;28;822;-53
2021/12/03 00:09:39;;;;;;;;;;;;;;;;;;172010;28;889;-54
2021/12/03 00:09:44;;;;;;;;;;;;;;;;;;171958;28;1024;-52
2021/12/03 00:09:50;;;;;;;;;;;;;;;;;;171987;28;794;-53
2021/12/03 00:09:56;;;;;;;;;;;;;;;;;;171909;28;1119;-54
2021/12/03 00:10:02;;;;;;;;;;;;;;;;;;172074;28;917;-52
2021/12/03 00:10:08;;;;;;;;;;;;;;;;;;171941;28;1173;-54
2021/12/03 00:10:15;;;;;;;;;;;;;;;;;;172184;28;880;-53
2021/12/03 00:10:23;;;;;;;;;;;;;;;;;;172041;28;1146;-53
2021/12/03 00:10:28;;;;;;;;;;;;;;;;;;172172;28;816;-53
2021/12/03 00:10:35;;;;;;;;;;;;;;;;;;172072;28;1118;-53
2021/12/03 00:10:42;;;;;;;;;;;;;;;;;;172155;28;832;-54
2021/12/03 00:10:55;;;;;;;;;;;;;;;;;;172131;28;1067;-53
2021/12/03 00:11:02;;;;;;;;;;;;;;;;;;172179;28;834;-54
2021/12/03 00:11:10;;;;;;;;;;;;;;;;;;171971;28;1098;-53
2021/12/03 00:11:15;;;;;;;;;;;;;;;;;;172144;28;877;-53
2021/12/03 00:11:20;;;;;;;;;;;;;;;;;;172014;28;1288;-54
2021/12/03 00:11:25;;;;;;;;;;;;;;;;;;172069;28;832;-53
2021/12/03 00:11:31;;;;;;;;;;;;;;;;;;172090;28;1158;-52
2021/12/03 00:11:36;;;;;;;;;;;;;;;;;;172118;28;805;-52
2021/12/03 00:11:41;;;;;;;;;;;;;;;;;;172074;28;1087;-54
2021/12/03 00:11:46;;;;;;;;;;;;;;;;;;172071;28;996;-53
2021/12/03 00:11:51;;;;;;;;;;;;;;;;;;172017;28;896;-53
2021/12/03 00:11:56;;;;;;;;;;;;;;;;;;172100;28;1106;-53
2021/12/03 00:12:02;;;;;;;;;;;;;;;;;;172088;28;801;-55
2021/12/03 00:12:08;;;;;;;;;;;;;;;;;;171863;28;1058;-53
2021/12/03 00:12:13;;;;;;;;;;;;;;;;;;172159;28;959;-53
2021/12/03 00:12:18;;;;;;;;;;;;;;;;;;171871;28;1083;-54
2021/12/03 00:12:23;;;;;;;;;;;;;;;;;;171946;28;805;-53
2021/12/03 00:12:29;;;;;;;;;;;;;;;;;;172002;28;1103;-53
2021/12/03 00:12:34;;;;;;;;;;;;;;;;;;172087;28;1038;-53
2021/12/03 00:12:39;;;;;;;;;;;;;;;;;;172001;28;999;-52
2021/12/03 00:12:45;;;;;;;;;;;;;;;;;;171980;28;869;-53
2021/12/03 00:12:50;;;;;;;;;;;;;;;;;;171970;28;909;-53
2021/12/03 00:12:56;;;;;;;;;;;;;;;;;;171953;28;1122;-53
2021/12/03 00:13:01;;;;;;;;;;;;;;;;;;171482;28;4357;-54
2021/12/03 00:13:06;;;;;;;;;;;;;;;;;;171950;28;1191;-54
2021/12/03 00:13:12;;;;;;;;;;;;;;;;;;172080;28;951;-53
2021/12/03 00:13:19;;;;;;;;;;;;;;;;;;172032;28;1138;-53
2021/12/03 00:13:24;;;;;;;;;;;;;;;;;;171977;28;876;-53
2021/12/03 00:13:30;;;;;;;;;;;;;;;;;;172048;28;1107;-52
2021/12/03 00:13:35;;;;;;;;;;;;;;;;;;171982;28;987;-53
2021/12/03 00:13:40;;;;;;;;;;;;;;;;;;172030;28;1039;-54
2021/12/03 00:13:45;;;;;;;;;;;;;;;;;;171283;28;988;-55
2021/12/03 00:13:51;;;;;;;;;;;;;;;;;;171239;28;1115;-54
2021/12/03 00:13:56;;;;;;;;;;;;;;;;;;171404;28;960;-54
2021/12/03 00:14:01;;;;;;;;;;;;;;;;;;171470;28;821;-53
2021/12/03 00:14:06;;;;;;;;;;;;;;;;;;171283;28;1182;-54
2021/12/03 00:14:11;;;;;;;;;;;;;;;;;;171453;28;873;-53
2021/12/03 00:14:16;;;;;;;;;;;;;;;;;;171726;28;1250;-53
2021/12/03 00:14:22;;;;;;;;;;;;;;;;;;171971;28;821;-53
2021/12/03 00:14:27;;;;;;;;;;;;;;;;;;172077;28;1185;-53
2021/12/03 00:14:33;;;;;;;;;;;;;;;;;;172116;28;861;-56
2021/12/03 00:14:38;;;;;;;;;;;;;;;;;;171886;28;1021;-54
2021/12/03 00:14:43;;;;;;;;;;;;;;;;;;172046;28;931;-54
2021/12/03 00:14:48;;;;;;;;;;;;;;;;;;171963;28;1054;-53
2021/12/03 00:14:53;;;;;;;;;;;;;;;;;;171854;28;1145;-53
2021/12/03 00:14:58;;;;;;;;;;;;;;;;;;171987;28;1246;-55
2021/12/03 00:15:04;;;;;;;;;;;;;;;;;;171636;28;1428;-52
2021/12/03 00:15:10;;;;;;;;;;;;;;;;;;170633;28;1586;-53
2021/12/03 00:15:15;;;;;;;;;;;;;;;;;;170571;28;1616;-52
2021/12/03 00:15:23;;;;;;;;;;;;;;;;;;171120;28;1910;-52
2021/12/03 00:15:28;;;;;;;;;;;;;;;;;;171256;28;886;-53
2021/12/03 00:15:34;;;;;;;;;;;;;;;;;;170765;29;1048;-54
2021/12/03 00:15:39;;;;;;;;;;;;;;;;;;171110;28;1088;-54
2021/12/03 00:15:44;;;;;;;;;;;;;;;;;;171709;28;805;-51
2021/12/03 00:15:50;;;;;;;;;;;;;;;;;;171871;28;1047;-52
2021/12/03 00:15:55;;;;;;;;;;;;;;;;;;172053;28;964;-55
2021/12/03 00:16:00;;;;;;;;;;;;;;;;;;172099;28;1181;-53
2021/12/03 00:16:06;;;;;;;;;;;;;;;;;;171966;28;901;-53
2021/12/03 00:16:11;;;;;;;;;;;;;;;;;;172062;28;809;-52
2021/12/03 00:16:17;;;;;;;;;;;;;;;;;;171473;28;940;-54
2021/12/03 00:16:22;;;;;;;;;;;;;;;;;;171251;28;853;-54
2021/12/03 00:16:27;;;;;;;;;;;;;;;;;;171997;28;1190;-53
2021/12/03 00:16:33;;;;;;;;;;;;;;;;;;172096;28;1297;-54
2021/12/03 00:16:38;;;;;;;;;;;;;;;;;;171922;28;1185;-53
2021/12/03 00:16:43;;;;;;;;;;;;;;;;;;172059;28;877;-53
2021/12/03 00:16:48;;;;;;;;;;;;;;;;;;171338;28;1595;-55
2021/12/03 00:16:53;;;;;;;;;;;;;;;;;;171454;28;1031;-53
2021/12/03 00:16:59;;;;;;;;;;;;;;;;;;171402;28;1135;-53
2021/12/03 00:17:04;;;;;;;;;;;;;;;;;;171495;28;4208;-53
2021/12/03 00:17:09;;;;;;;;;;;;;;;;;;171581;28;818;-53
2021/12/03 00:17:14;;;;;;;;;;;;;;;;;;172049;28;1194;-53
2021/12/03 00:17:19;;;;;;;;;;;;;;;;;;172115;28;813;-53
2021/12/03 00:17:24;;;;;;;;;;;;;;;;;;172109;28;1110;-53
2021/12/03 00:17:30;;;;;;;;;;;;;;;;;;172157;28;885;-53
2021/12/03 00:17:35;;;;;;;;;;;;;;;;;;172095;28;1170;-52
2021/12/03 00:17:40;;;;;;;;;;;;;;;;;;172079;28;860;-55
2021/12/03 00:17:45;;;;;;;;;;;;;;;;;;172158;28;1169;-53
2021/12/03 00:17:50;;;;;;;;;;;;;;;;;;171974;28;872;-54
2021/12/03 00:17:56;;;;;;;;;;;;;;;;;;172012;28;1202;-53
2021/12/03 00:18:01;;;;;;;;;;;;;;;;;;172051;28;1225;-53
2021/12/03 00:18:06;;;;;;;;;;;;;;;;;;171925;28;850;-55
2021/12/03 00:18:11;;;;;;;;;;;;;;;;;;172086;28;1142;-52
2021/12/03 00:18:16;;;;;;;;;;;;;;;;;;172205;28;805;-53
2021/12/03 00:18:22;;;;;;;;;;;;;;;;;;171953;28;1079;-52
2021/12/03 00:18:27;;;;;;;;;;;;;;;;;;172130;28;939;-53
2021/12/03 00:18:32;;;;;;;;;;;;;;;;;;172128;28;793;-54
2021/12/03 00:18:37;;;;;;;;;;;;;;;;;;171992;28;1297;-52
2021/12/03 00:18:42;;;;;;;;;;;;;;;;;;172176;28;1062;-53
2021/12/03 00:18:47;;;;;;;;;;;;;;;;;;172088;28;1126;-54
2021/12/03 00:18:53;;;;;;;;;;;;;;;;;;171968;28;987;-53
2021/12/03 00:18:58;;;;;;;;;;;;;;;;;;172046;28;1189;-53
2021/12/03 00:19:03;;;;;;;;;;;;;;;;;;172165;28;1074;-52
2021/12/03 00:19:08;;;;;;;;;;;;;;;;;;172011;28;1110;-53
2021/12/03 00:19:13;;;;;;;;;;;;;;;;;;172145;28;773;-53
2021/12/03 00:19:19;;;;;;;;;;;;;;;;;;172203;28;805;-54
2021/12/03 00:19:24;;;;;;;;;;;;;;;;;;172076;28;1265;-52
2021/12/03 00:19:29;;;;;;;;;;;;;;;;;;172170;28;856;-53
2021/12/03 00:19:34;;;;;;;;;;;;;;;;;;172070;28;1229;-54
2021/12/03 00:19:40;;;;;;;;;;;;;;;;;;172118;28;857;-54
2021/12/03 00:19:45;;;;;;;;;;;;;;;;;;172169;28;1099;-53
2021/12/03 00:19:50;;;;;;;;;;;;;;;;;;171998;28;837;-54
2021/12/03 00:19:55;;;;;;;;;;;;;;;;;;171978;28;1165;-54
2021/12/03 00:20:01;;;;;;;;;;;;;;;;;;172174;28;841;-53
2021/12/03 00:20:07;;;;;;;;;;;;;;;;;;172081;28;825;-53
2021/12/03 00:20:13;;;;;;;;;;;;;;;;;;171511;28;897;-54
2021/12/03 00:20:19;;;;;;;;;;;;;;;;;;171442;28;1087;-53
2021/12/03 00:20:24;;;;;;;;;;;;;;;;;;171978;28;1039;-55
2021/12/03 00:20:34;;;;;;;;;;;;;;;;;;172172;28;922;-53
2021/12/03 00:20:39;;;;;;;;;;;;;;;;;;172088;28;868;-53
2021/12/03 00:20:45;;;;;;;;;;;;;;;;;;172097;28;1217;-53
2021/12/03 00:20:50;;;;;;;;;;;;;;;;;;171907;28;933;-53
2021/12/03 00:20:55;;;;;;;;;;;;;;;;;;172054;28;1130;-53
2021/12/03 00:21:03;;;;;;;;;;;;;;;;;;172118;28;912;-54
2021/12/03 00:21:10;;;;;;;;;;;;;;;;;;171639;28;4384;-54
2021/12/03 00:21:17;;;;;;;;;;;;;;;;;;172240;28;808;-53
2021/12/03 00:21:24;;;;;;;;;;;;;;;;;;172021;28;1273;-53
2021/12/03 00:21:29;;;;;;;;;;;;;;;;;;172074;28;1138;-54
2021/12/03 00:21:37;;;;;;;;;;;;;;;;;;172059;28;861;-52
2021/12/03 00:21:42;;;;;;;;;;;;;;;;;;172044;28;1110;-54
2021/12/03 00:21:47;;;;;;;;;;;;;;;;;;172069;28;936;-55
2021/12/03 00:21:52;;;;;;;;;;;;;;;;;;171910;28;1055;-53
2021/12/03 00:21:58;;;;;;;;;;;;;;;;;;171349;28;1035;-53
2021/12/03 00:22:03;;;;;;;;;;;;;;;;;;171429;28;722;-54
2021/12/03 00:22:08;;;;;;;;;;;;;;;;;;171878;28;1096;-52
2021/12/03 00:22:13;;;;;;;;;;;;;;;;;;172163;28;862;-52
2021/12/03 00:22:18;;;;;;;;;;;;;;;;;;171997;28;1167;-53
2021/12/03 00:22:23;;;;;;;;;;;;;;;;;;171989;28;999;-52
2021/12/03 00:22:29;;;;;;;;;;;;;;;;;;171990;28;1180;-54
2021/12/03 00:22:34;;;;;;;;;;;;;;;;;;172032;28;1087;-52
2021/12/03 00:22:43;;;;;;;;;;;;;;;;;;172009;28;878;-52
2021/12/03 00:22:49;;;;;;;;;;;;;;;;;;171409;28;818;-54
2021/12/03 00:22:56;;;;;;;;;;;;;;;;;;171296;28;1193;-53
2021/12/03 00:23:01;;;;;;;;;;;;;;;;;;171418;28;837;-53
2021/12/03 00:23:06;;;;;;;;;;;;;;;;;;171233;28;1092;-54
2021/12/03 00:23:11;;;;;;;;;;;;;;;;;;171481;28;1004;-55
2021/12/03 00:23:17;;;;;;;;;;;;;;;;;;171324;28;1166;-53
2021/12/03 00:23:22;;;;;;;;;;;;;;;;;;171345;28;877;-52
2021/12/03 00:23:28;;;;;;;;;;;;;;;;;;171297;28;1103;-53
2021/12/03 00:23:33;;;;;;;;;;;;;;;;;;171629;28;913;-53
2021/12/03 00:23:38;;;;;;;;;;;;;;;;;;172009;28;793;-55
2021/12/03 00:23:44;;;;;;;;;;;;;;;;;;172073;28;968;-53
2021/12/03 00:23:49;;;;;;;;;;;;;;;;;;172007;28;794;-54
2021/12/03 00:23:54;;;;;;;;;;;;;;;;;;171794;28;1086;-55
2021/12/03 00:23:59;;;;;;;;;;;;;;;;;;172060;28;797;-52
2021/12/03 00:24:04;;;;;;;;;;;;;;;;;;171922;28;1182;-54
2021/12/03 00:24:09;;;;;;;;;;;;;;;;;;172078;28;840;-53
2021/12/03 00:24:15;;;;;;;;;;;;;;;;;;172077;28;1228;-53
2021/12/03 00:24:20;;;;;;;;;;;;;;;;;;172045;28;767;-53
2021/12/03 00:24:25;;;;;;;;;;;;;;;;;;172046;28;1059;-53
2021/12/03 00:24:30;;;;;;;;;;;;;;;;;;172071;28;1253;-52
2021/12/03 00:24:37;;;;;;;;;;;;;;;;;;171998;28;821;-53
2021/12/03 00:24:42;;;;;;;;;;;;;;;;;;172083;28;1162;-53
2021/12/03 00:24:47;;;;;;;;;;;;;;;;;;172001;28;853;-53
2021/12/03 00:24:52;;;;;;;;;;;;;;;;;;171769;28;1186;-53
2021/12/03 00:24:57;;;;;;;;;;;;;;;;;;172051;28;1757;-53
2021/12/03 00:25:03;;;;;;;;;;;;;;;;;;172092;28;1174;-54
2021/12/03 00:25:08;;;;;;;;;;;;;;;;;;170532;28;4222;-53
2021/12/03 00:25:13;;;;;;;;;;;;;;;;;;171480;28;1561;-53
2021/12/03 00:25:18;;;;;;;;;;;;;;;;;;171601;28;1644;-53
2021/12/03 00:25:23;;;;;;;;;;;;;;;;;;171792;28;837;-51
2021/12/03 00:25:29;;;;;;;;;;;;;;;;;;171941;28;1217;-53
2021/12/03 00:25:34;;;;;;;;;;;;;;;;;;172106;28;813;-52
2021/12/03 00:25:39;;;;;;;;;;;;;;;;;;171611;28;1390;-52
2021/12/03 00:25:44;;;;;;;;;;;;;;;;;;171842;28;1755;-53
2021/12/03 00:25:50;;;;;;;;;;;;;;;;;;171921;28;1020;-53
2021/12/03 00:25:55;;;;;;;;;;;;;;;;;;172059;28;900;-54
2021/12/03 00:26:01;;;;;;;;;;;;;;;;;;172062;28;1059;-54
2021/12/03 00:26:06;;;;;;;;;;;;;;;;;;172073;28;860;-54
2021/12/03 00:26:11;;;;;;;;;;;;;;;;;;171671;28;1605;-53
2021/12/03 00:26:16;;;;;;;;;;;;;;;;;;171620;28;1268;-53
2021/12/03 00:26:22;;;;;;;;;;;;;;;;;;172038;28;941;-54
2021/12/03 00:26:27;;;;;;;;;;;;;;;;;;172039;28;1373;-52
2021/12/03 00:26:32;;;;;;;;;;;;;;;;;;172174;28;873;-54
2021/12/03 00:26:38;;;;;;;;;;;;;;;;;;172006;28;999;-53
2021/12/03 00:26:43;;;;;;;;;;;;;;;;;;172181;28;905;-53
2021/12/03 00:26:48;;;;;;;;;;;;;;;;;;172045;28;1059;-53
2021/12/03 00:26:53;;;;;;;;;;;;;;;;;;172081;28;860;-53
2021/12/03 00:26:58;;;;;;;;;;;;;;;;;;172062;28;893;-53
2021/12/03 00:27:04;;;;;;;;;;;;;;;;;;172120;28;959;-54
2021/12/03 00:27:09;;;;;;;;;;;;;;;;;;172104;28;865;-52
2021/12/03 00:27:14;;;;;;;;;;;;;;;;;;172036;28;1154;-54
2021/12/03 00:27:20;;;;;;;;;;;;;;;;;;172078;28;818;-52
2021/12/03 00:27:25;;;;;;;;;;;;;;;;;;172082;28;1110;-52
2021/12/03 00:27:30;;;;;;;;;;;;;;;;;;172208;28;814;-53
2021/12/03 00:27:35;;;;;;;;;;;;;;;;;;172027;28;996;-53
2021/12/03 00:27:41;;;;;;;;;;;;;;;;;;172128;28;720;-54
2021/12/03 00:27:46;;;;;;;;;;;;;;;;;;172176;28;1170;-54
2021/12/03 00:27:51;;;;;;;;;;;;;;;;;;171953;28;818;-53
2021/12/03 00:27:56;;;;;;;;;;;;;;;;;;172098;28;853;-53
2021/12/03 00:28:02;;;;;;;;;;;;;;;;;;172158;28;1301;-52
2021/12/03 00:28:07;;;;;;;;;;;;;;;;;;172066;28;805;-53
2021/12/03 00:28:12;;;;;;;;;;;;;;;;;;172107;28;1229;-52
2021/12/03 00:28:17;;;;;;;;;;;;;;;;;;172069;28;1055;-53
2021/12/03 00:28:22;;;;;;;;;;;;;;;;;;172092;28;1142;-54
2021/12/03 00:28:28;;;;;;;;;;;;;;;;;;172120;28;955;-53
2021/12/03 00:28:33;;;;;;;;;;;;;;;;;;171985;28;1197;-53
2021/12/03 00:28:38;;;;;;;;;;;;;;;;;;172069;28;960;-54
2021/12/03 00:28:44;;;;;;;;;;;;;;;;;;172162;28;987;-52
2021/12/03 00:28:49;;;;;;;;;;;;;;;;;;171931;28;1099;-54
2021/12/03 00:28:54;;;;;;;;;;;;;;;;;;172089;28;884;-52
2021/12/03 00:28:59;;;;;;;;;;;;;;;;;;172039;28;1162;-53
2021/12/03 00:29:04;;;;;;;;;;;;;;;;;;172104;28;509;-52
2021/12/03 00:29:10;;;;;;;;;;;;;;;;;;171600;28;4413;-53
2021/12/03 00:29:15;;;;;;;;;;;;;;;;;;172156;28;482;-53
2021/12/03 00:29:20;;;;;;;;;;;;;;;;;;171775;28;1166;-54
2021/12/03 00:29:25;;;;;;;;;;;;;;;;;;172114;28;900;-55
2021/12/03 00:29:30;;;;;;;;;;;;;;;;;;172076;28;995;-52
2021/12/03 00:29:36;;;;;;;;;;;;;;;;;;171942;28;1114;-52
2021/12/03 00:29:41;;;;;;;;;;;;;;;;;;172099;28;885;-53
2021/12/03 00:29:46;;;;;;;;;;;;;;;;;;172036;28;1217;-54
2021/12/03 00:29:51;;;;;;;;;;;;;;;;;;171860;28;941;-53
2021/12/03 00:29:56;;;;;;;;;;;;;;;;;;171980;28;1174;-54
2021/12/03 00:30:02;;;;;;;;;;;;;;;;;;172157;28;840;-52
2021/12/03 00:30:08;;;;;;;;;;;;;;;;;;171961;28;1099;-54
2021/12/03 00:30:13;;;;;;;;;;;;;;;;;;171653;28;1616;-54
2021/12/03 00:30:19;;;;;;;;;;;;;;;;;;171899;28;890;-54
2021/12/03 00:30:24;;;;;;;;;;;;;;;;;;172015;28;809;-52
2021/12/03 00:30:29;;;;;;;;;;;;;;;;;;172014;28;1015;-53
2021/12/03 00:30:34;;;;;;;;;;;;;;;;;;171916;28;1234;-53
2021/12/03 00:30:39;;;;;;;;;;;;;;;;;;172050;28;948;-52
2021/12/03 00:30:45;;;;;;;;;;;;;;;;;;172145;28;1170;-52
2021/12/03 00:30:50;;;;;;;;;;;;;;;;;;171917;28;881;-52
2021/12/03 00:30:55;;;;;;;;;;;;;;;;;;172006;28;1158;-53
2021/12/03 00:31:00;;;;;;;;;;;;;;;;;;172101;28;557;-54
2021/12/03 00:31:05;;;;;;;;;;;;;;;;;;171982;28;925;-53
2021/12/03 00:31:11;;;;;;;;;;;;;;;;;;172031;28;1154;-52
2021/12/03 00:31:16;;;;;;;;;;;;;;;;;;172163;28;866;-53
2021/12/03 00:31:21;;;;;;;;;;;;;;;;;;172000;28;1161;-54
2021/12/03 00:31:26;;;;;;;;;;;;;;;;;;172175;28;1003;-55
2021/12/03 00:31:31;;;;;;;;;;;;;;;;;;172183;28;1083;-51
2021/12/03 00:31:36;;;;;;;;;;;;;;;;;;172034;28;892;-52
2021/12/03 00:31:42;;;;;;;;;;;;;;;;;;172104;28;1154;-53
2021/12/03 00:31:47;;;;;;;;;;;;;;;;;;172106;28;889;-52
2021/12/03 00:31:52;;;;;;;;;;;;;;;;;;172019;28;901;-52
2021/12/03 00:31:57;;;;;;;;;;;;;;;;;;171992;28;1220;-52
2021/12/03 00:32:02;;;;;;;;;;;;;;;;;;172159;28;868;-54
2021/12/03 00:32:08;;;;;;;;;;;;;;;;;;172003;28;1098;-54
2021/12/03 00:32:13;;;;;;;;;;;;;;;;;;172160;28;1059;-53
2021/12/03 00:32:18;;;;;;;;;;;;;;;;;;172071;28;960;-53
2021/12/03 00:32:23;;;;;;;;;;;;;;;;;;172120;28;872;-52
2021/12/03 00:32:28;;;;;;;;;;;;;;;;;;172142;28;1102;-52
2021/12/03 00:32:34;;;;;;;;;;;;;;;;;;172098;28;797;-54
2021/12/03 00:32:39;;;;;;;;;;;;;;;;;;172092;28;893;-53
2021/12/03 00:32:44;;;;;;;;;;;;;;;;;;172100;28;1264;-53
2021/12/03 00:32:49;;;;;;;;;;;;;;;;;;171946;28;873;-52
2021/12/03 00:32:54;;;;;;;;;;;;;;;;;;172106;28;1110;-53
2021/12/03 00:33:00;;;;;;;;;;;;;;;;;;172105;28;901;-53
2021/12/03 00:33:05;;;;;;;;;;;;;;;;;;171994;28;1512;-54
2021/12/03 00:33:12;;;;;;;;;;;;;;;;;;171721;28;4337;-54
2021/12/03 00:33:17;;;;;;;;;;;;;;;;;;171946;28;1090;-52
2021/12/03 00:33:22;;;;;;;;;;;;;;;;;;172050;28;987;-52
2021/12/03 00:33:30;;;;;;;;;;;;;;;;;;172026;28;1137;-52
2021/12/03 00:33:36;;;;;;;;;;;;;;;;;;171977;28;842;-53
2021/12/03 00:33:41;;;;;;;;;;;;;;;;;;172026;28;1162;-53
2021/12/03 00:33:46;;;;;;;;;;;;;;;;;;172186;28;877;-53
2021/12/03 00:33:51;;;;;;;;;;;;;;;;;;171777;28;1011;-53
2021/12/03 00:33:56;;;;;;;;;;;;;;;;;;171937;28;1000;-52
2021/12/03 00:34:02;;;;;;;;;;;;;;;;;;172011;28;888;-54
2021/12/03 00:34:07;;;;;;;;;;;;;;;;;;171922;28;1095;-53
2021/12/03 00:34:12;;;;;;;;;;;;;;;;;;172102;28;1007;-54
2021/12/03 00:34:17;;;;;;;;;;;;;;;;;;171875;28;1220;-54
2021/12/03 00:34:23;;;;;;;;;;;;;;;;;;171985;28;932;-54
2021/12/03 00:34:28;;;;;;;;;;;;;;;;;;171347;28;1212;-53
2021/12/03 00:34:33;;;;;;;;;;;;;;;;;;171118;28;1170;-52
2021/12/03 00:34:38;;;;;;;;;;;;;;;;;;171212;28;1098;-54
2021/12/03 00:34:43;;;;;;;;;;;;;;;;;;171251;28;936;-52
2021/12/03 00:34:49;;;;;;;;;;;;;;;;;;171245;28;1036;-53
2021/12/03 00:34:54;;;;;;;;;;;;;;;;;;171266;28;1103;-53
2021/12/03 00:34:59;;;;;;;;;;;;;;;;;;171309;28;1266;-54
2021/12/03 00:35:05;;;;;;;;;;;;;;;;;;170953;28;1406;-53
2021/12/03 00:35:10;;;;;;;;;;;;;;;;;;170646;28;1509;-53
2021/12/03 00:35:15;;;;;;;;;;;;;;;;;;171292;28;1003;-52
2021/12/03 00:35:20;;;;;;;;;;;;;;;;;;171210;28;1898;-53
2021/12/03 00:35:26;;;;;;;;;;;;;;;;;;171473;28;1084;-53
2021/12/03 00:35:31;;;;;;;;;;;;;;;;;;171037;28;1728;-51
2021/12/03 00:35:36;;;;;;;;;;;;;;;;;;171599;28;1583;-55
2021/12/03 00:35:41;;;;;;;;;;;;;;;;;;172029;28;1242;-53
2021/12/03 00:35:46;;;;;;;;;;;;;;;;;;172091;28;908;-52
2021/12/03 00:35:52;;;;;;;;;;;;;;;;;;171451;28;1114;-53
2021/12/03 00:35:59;;;;;;;;;;;;;;;;;;171349;28;864;-54
2021/12/03 00:36:06;;;;;;;;;;;;;;;;;;171757;28;1127;-52
2021/12/03 00:36:11;;;;;;;;;;;;;;;;;;172012;28;845;-53
2021/12/03 00:36:16;;;;;;;;;;;;;;;;;;172042;28;1175;-52
2021/12/03 00:36:23;;;;;;;;;;;;;;;;;;171983;28;880;-53
2021/12/03 00:36:28;;;;;;;;;;;;;;;;;;172444;28;1134;-53
2021/12/03 00:36:34;;;;;;;;;;;;;;;;;;172581;28;869;-52
2021/12/03 00:36:39;;;;;;;;;;;;;;;;;;172673;28;1220;-53
2021/12/03 00:36:44;;;;;;;;;;;;;;;;;;172832;28;845;-53
2021/12/03 00:36:50;;;;;;;;;;;;;;;;;;172517;28;1197;-55
2021/12/03 00:36:55;;;;;;;;;;;;;;;;;;172756;28;801;-54
2021/12/03 00:37:00;;;;;;;;;;;;;;;;;;172693;28;1205;-53
2021/12/03 00:37:06;;;;;;;;;;;;;;;;;;172226;28;4358;-54
2021/12/03 00:37:11;;;;;;;;;;;;;;;;;;172798;28;781;-52
2021/12/03 00:37:16;;;;;;;;;;;;;;;;;;172031;28;1003;-54
2021/12/03 00:37:21;;;;;;;;;;;;;;;;;;171996;28;584;-53
2021/12/03 00:37:26;;;;;;;;;;;;;;;;;;171952;28;1231;-54
2021/12/03 00:37:31;;;;;;;;;;;;;;;;;;172004;28;797;-54
2021/12/03 00:37:38;;;;;;;;;;;;;;;;;;171924;28;1087;-53
2021/12/03 00:37:43;;;;;;;;;;;;;;;;;;172094;28;871;-53
2021/12/03 00:37:49;;;;;;;;;;;;;;;;;;171917;28;1138;-54
2021/12/03 00:37:54;;;;;;;;;;;;;;;;;;172023;28;845;-52
2021/12/03 00:37:59;;;;;;;;;;;;;;;;;;171899;28;1139;-53
2021/12/03 00:38:04;;;;;;;;;;;;;;;;;;171986;28;1042;-53
2021/12/03 00:38:10;;;;;;;;;;;;;;;;;;172062;28;904;-54
2021/12/03 00:38:16;;;;;;;;;;;;;;;;;;172114;28;858;-52
2021/12/03 00:38:21;;;;;;;;;;;;;;;;;;172033;28;814;-53
2021/12/03 00:38:26;;;;;;;;;;;;;;;;;;172004;28;1159;-53
2021/12/03 00:38:36;;;;;;;;;;;;;;;;;;171897;28;857;-53
2021/12/03 00:38:43;;;;;;;;;;;;;;;;;;172131;28;936;-53
2021/12/03 00:38:53;;;;;;;;;;;;;;;;;;171876;28;1143;-53
2021/12/03 00:38:59;;;;;;;;;;;;;;;;;;172022;28;1122;-52
2021/12/03 00:39:04;;;;;;;;;;;;;;;;;;172010;28;725;-53
2021/12/03 00:39:10;;;;;;;;;;;;;;;;;;171966;28;1209;-53
2021/12/03 00:39:15;;;;;;;;;;;;;;;;;;172117;28;987;-54
2021/12/03 00:39:21;;;;;;;;;;;;;;;;;;171762;28;2210;-54
2021/12/03 00:39:27;;;;;;;;;;;;;;;;;;172036;28;858;-53
2021/12/03 00:39:32;;;;;;;;;;;;;;;;;;171857;28;821;-51